sensor_id;sensor_type;location;lat;lon;timestamp;P1;durP1;ratioP1;P2;durP2;ratioP2
51214;SDS011;63849;47.546;19.254;2023-04-16T00:00:51;13.80;;;11.88;;
51214;SDS011;63849;47.546;19.254;2023-04-16T00:03:17;13.50;;;11.98;;
51214;SDS011;63849;47.546;19.254;2023-04-16T00:05:42;14.30;;;11.73;;
51214;SDS011;63849;47.546;19.254;2023-04-16T00:08:08;16.42;;;13.73;;
51214;SDS011;63849;47.546;19.254;2023-04-16T00:10:34;14.93;;;13.23;;
51214;SDS011;63849;47.546;19.254;2023-04-16T00:13:00;16.90;;;14.70;;
51214;SDS011;63849;47.546;19.254;2023-04-16T00:15:26;17.63;;;15.15;;
51214;SDS011;63849;47.546;19.254;2023-04-16T00:17:51;16.63;;;14.60;;
51214;SDS011;63849;47.546;19.254;2023-04-16T00:20:17;19.10;;;16.52;;
51214;SDS011;63849;47.546;19.254;2023-04-16T00:22:44;17.13;;;15.07;;
51214;SDS011;63849;47.546;19.254;2023-04-16T00:25:10;19.55;;;16.60;;
51214;SDS011;63849;47.546;19.254;2023-04-16T00:27:37;20.27;;;16.88;;
51214;SDS011;63849;47.546;19.254;2023-04-16T00:30:03;22.40;;;17.92;;
51214;SDS011;63849;47.546;19.254;2023-04-16T00:32:29;20.35;;;18.17;;
51214;SDS011;63849;47.546;19.254;2023-04-16T00:34:55;20.88;;;16.30;;
51214;SDS011;63849;47.546;19.254;2023-04-16T00:37:20;19.02;;;16.92;;
51214;SDS011;63849;47.546;19.254;2023-04-16T00:39:46;19.08;;;16.30;;
51214;SDS011;63849;47.546;19.254;2023-04-16T00:42:12;18.88;;;15.98;;
51214;SDS011;63849;47.546;19.254;2023-04-16T00:44:38;18.50;;;15.88;;
51214;SDS011;63849;47.546;19.254;2023-04-16T00:47:04;16.88;;;14.80;;
51214;SDS011;63849;47.546;19.254;2023-04-16T00:49:31;18.40;;;15.32;;
51214;SDS011;63849;47.546;19.254;2023-04-16T00:51:57;17.65;;;15.55;;
51214;SDS011;63849;47.546;19.254;2023-04-16T00:54:24;17.83;;;16.00;;
51214;SDS011;63849;47.546;19.254;2023-04-16T00:56:50;16.60;;;15.10;;
51214;SDS011;63849;47.546;19.254;2023-04-16T00:59:16;16.13;;;14.60;;
51214;SDS011;63849;47.546;19.254;2023-04-16T01:01:42;17.92;;;14.85;;
51214;SDS011;63849;47.546;19.254;2023-04-16T01:04:08;16.52;;;14.43;;
51214;SDS011;63849;47.546;19.254;2023-04-16T01:06:34;15.93;;;14.32;;
51214;SDS011;63849;47.546;19.254;2023-04-16T01:09:00;15.75;;;14.05;;
51214;SDS011;63849;47.546;19.254;2023-04-16T01:11:26;15.13;;;13.70;;
51214;SDS011;63849;47.546;19.254;2023-04-16T01:13:52;14.93;;;13.43;;
51214;SDS011;63849;47.546;19.254;2023-04-16T01:16:17;15.13;;;13.63;;
51214;SDS011;63849;47.546;19.254;2023-04-16T01:18:43;16.15;;;14.55;;
51214;SDS011;63849;47.546;19.254;2023-04-16T01:21:09;13.82;;;12.50;;
51214;SDS011;63849;47.546;19.254;2023-04-16T01:23:35;13.98;;;12.57;;
51214;SDS011;63849;47.546;19.254;2023-04-16T01:26:00;14.55;;;13.07;;
51214;SDS011;63849;47.546;19.254;2023-04-16T01:28:26;13.13;;;11.93;;
51214;SDS011;63849;47.546;19.254;2023-04-16T01:30:52;13.20;;;11.98;;
51214;SDS011;63849;47.546;19.254;2023-04-16T01:33:18;12.75;;;11.55;;
51214;SDS011;63849;47.546;19.254;2023-04-16T01:35:45;12.40;;;11.15;;
51214;SDS011;63849;47.546;19.254;2023-04-16T01:38:11;13.18;;;11.93;;
51214;SDS011;63849;47.546;19.254;2023-04-16T01:40:37;12.15;;;10.95;;
51214;SDS011;63849;47.546;19.254;2023-04-16T01:43:03;12.25;;;11.05;;
51214;SDS011;63849;47.546;19.254;2023-04-16T01:45:32;12.20;;;11.00;;
51214;SDS011;63849;47.546;19.254;2023-04-16T01:47:59;13.05;;;11.63;;
51214;SDS011;63849;47.546;19.254;2023-04-16T01:50:25;11.98;;;10.88;;
51214;SDS011;63849;47.546;19.254;2023-04-16T01:52:51;12.18;;;10.98;;
51214;SDS011;63849;47.546;19.254;2023-04-16T01:55:17;11.75;;;10.65;;
51214;SDS011;63849;47.546;19.254;2023-04-16T01:57:43;13.98;;;10.80;;
51214;SDS011;63849;47.546;19.254;2023-04-16T02:00:08;12.85;;;11.57;;
51214;SDS011;63849;47.546;19.254;2023-04-16T02:02:35;12.45;;;11.27;;
51214;SDS011;63849;47.546;19.254;2023-04-16T02:05:00;12.98;;;11.75;;
51214;SDS011;63849;47.546;19.254;2023-04-16T02:07:27;11.95;;;10.95;;
51214;SDS011;63849;47.546;19.254;2023-04-16T02:09:53;12.93;;;11.73;;
51214;SDS011;63849;47.546;19.254;2023-04-16T02:12:18;13.48;;;12.27;;
51214;SDS011;63849;47.546;19.254;2023-04-16T02:14:44;13.30;;;11.57;;
51214;SDS011;63849;47.546;19.254;2023-04-16T02:17:11;13.25;;;11.98;;
51214;SDS011;63849;47.546;19.254;2023-04-16T02:19:39;15.23;;;12.65;;
51214;SDS011;63849;47.546;19.254;2023-04-16T02:22:05;13.45;;;12.10;;
51214;SDS011;63849;47.546;19.254;2023-04-16T02:24:31;13.82;;;12.52;;
51214;SDS011;63849;47.546;19.254;2023-04-16T02:26:56;15.18;;;13.65;;
51214;SDS011;63849;47.546;19.254;2023-04-16T02:29:22;14.77;;;13.40;;
51214;SDS011;63849;47.546;19.254;2023-04-16T02:31:48;14.68;;;13.27;;
51214;SDS011;63849;47.546;19.254;2023-04-16T02:34:14;14.48;;;13.10;;
51214;SDS011;63849;47.546;19.254;2023-04-16T02:36:40;14.75;;;13.45;;
51214;SDS011;63849;47.546;19.254;2023-04-16T02:39:06;14.43;;;13.02;;
51214;SDS011;63849;47.546;19.254;2023-04-16T02:41:32;15.32;;;13.82;;
51214;SDS011;63849;47.546;19.254;2023-04-16T02:43:57;14.82;;;13.45;;
51214;SDS011;63849;47.546;19.254;2023-04-16T02:46:23;15.75;;;12.82;;
51214;SDS011;63849;47.546;19.254;2023-04-16T02:48:49;15.35;;;13.85;;
51214;SDS011;63849;47.546;19.254;2023-04-16T02:51:15;14.35;;;13.02;;
51214;SDS011;63849;47.546;19.254;2023-04-16T02:53:41;15.07;;;13.68;;
51214;SDS011;63849;47.546;19.254;2023-04-16T02:56:10;15.95;;;14.35;;
51214;SDS011;63849;47.546;19.254;2023-04-16T02:58:36;15.88;;;14.38;;
51214;SDS011;63849;47.546;19.254;2023-04-16T03:01:02;15.85;;;14.35;;
51214;SDS011;63849;47.546;19.254;2023-04-16T03:03:27;15.95;;;14.40;;
51214;SDS011;63849;47.546;19.254;2023-04-16T03:05:53;16.70;;;15.13;;
51214;SDS011;63849;47.546;19.254;2023-04-16T03:08:19;16.15;;;14.65;;
51214;SDS011;63849;47.546;19.254;2023-04-16T03:10:45;16.75;;;14.60;;
51214;SDS011;63849;47.546;19.254;2023-04-16T03:13:11;16.52;;;14.98;;
51214;SDS011;63849;47.546;19.254;2023-04-16T03:15:37;15.88;;;14.27;;
51214;SDS011;63849;47.546;19.254;2023-04-16T03:18:03;18.35;;;16.48;;
51214;SDS011;63849;47.546;19.254;2023-04-16T03:20:32;18.42;;;16.63;;
51214;SDS011;63849;47.546;19.254;2023-04-16T03:22:58;18.50;;;16.75;;
51214;SDS011;63849;47.546;19.254;2023-04-16T03:25:23;17.25;;;15.55;;
51214;SDS011;63849;47.546;19.254;2023-04-16T03:27:49;20.80;;;17.17;;
51214;SDS011;63849;47.546;19.254;2023-04-16T03:30:15;18.60;;;16.67;;
51214;SDS011;63849;47.546;19.254;2023-04-16T03:32:41;19.70;;;17.60;;
51214;SDS011;63849;47.546;19.254;2023-04-16T03:35:07;20.20;;;17.77;;
51214;SDS011;63849;47.546;19.254;2023-04-16T03:37:33;18.98;;;16.98;;
51214;SDS011;63849;47.546;19.254;2023-04-16T03:40:00;17.85;;;16.13;;
51214;SDS011;63849;47.546;19.254;2023-04-16T03:42:26;18.95;;;16.95;;
51214;SDS011;63849;47.546;19.254;2023-04-16T03:44:52;17.40;;;15.60;;
51214;SDS011;63849;47.546;19.254;2023-04-16T03:47:21;19.45;;;16.05;;
51214;SDS011;63849;47.546;19.254;2023-04-16T03:49:46;19.85;;;17.75;;
51214;SDS011;63849;47.546;19.254;2023-04-16T03:52:13;17.95;;;16.05;;
51214;SDS011;63849;47.546;19.254;2023-04-16T03:54:38;18.38;;;16.48;;
51214;SDS011;63849;47.546;19.254;2023-04-16T03:57:04;20.83;;;17.48;;
51214;SDS011;63849;47.546;19.254;2023-04-16T03:59:30;19.38;;;17.27;;
51214;SDS011;63849;47.546;19.254;2023-04-16T04:01:56;18.70;;;16.70;;
51214;SDS011;63849;47.546;19.254;2023-04-16T04:04:22;18.58;;;16.58;;
51214;SDS011;63849;47.546;19.254;2023-04-16T04:06:48;19.27;;;17.27;;
51214;SDS011;63849;47.546;19.254;2023-04-16T04:09:13;17.95;;;16.15;;
51214;SDS011;63849;47.546;19.254;2023-04-16T04:11:40;18.88;;;16.83;;
51214;SDS011;63849;47.546;19.254;2023-04-16T04:14:07;17.90;;;16.10;;
51214;SDS011;63849;47.546;19.254;2023-04-16T04:16:33;18.98;;;16.67;;
51214;SDS011;63849;47.546;19.254;2023-04-16T04:18:59;19.40;;;17.45;;
51214;SDS011;63849;47.546;19.254;2023-04-16T04:21:26;18.65;;;16.70;;
51214;SDS011;63849;47.546;19.254;2023-04-16T04:23:53;20.50;;;18.40;;
51214;SDS011;63849;47.546;19.254;2023-04-16T04:26:19;19.20;;;17.20;;
51214;SDS011;63849;47.546;19.254;2023-04-16T04:28:45;18.13;;;15.07;;
51214;SDS011;63849;47.546;19.254;2023-04-16T04:31:11;15.55;;;13.48;;
51214;SDS011;63849;47.546;19.254;2023-04-16T04:33:37;14.50;;;13.00;;
51214;SDS011;63849;47.546;19.254;2023-04-16T04:36:03;11.82;;;10.63;;
51214;SDS011;63849;47.546;19.254;2023-04-16T04:38:29;11.07;;;9.98;;
51214;SDS011;63849;47.546;19.254;2023-04-16T04:40:55;10.43;;;9.23;;
51214;SDS011;63849;47.546;19.254;2023-04-16T04:43:21;10.10;;;9.10;;
51214;SDS011;63849;47.546;19.254;2023-04-16T04:45:47;10.40;;;9.30;;
51214;SDS011;63849;47.546;19.254;2023-04-16T04:48:13;10.02;;;9.02;;
51214;SDS011;63849;47.546;19.254;2023-04-16T04:50:40;9.68;;;8.77;;
51214;SDS011;63849;47.546;19.254;2023-04-16T04:53:06;12.43;;;9.15;;
51214;SDS011;63849;47.546;19.254;2023-04-16T04:55:37;10.05;;;9.05;;
51214;SDS011;63849;47.546;19.254;2023-04-16T04:58:04;10.32;;;9.32;;
51214;SDS011;63849;47.546;19.254;2023-04-16T05:00:30;12.38;;;10.05;;
51214;SDS011;63849;47.546;19.254;2023-04-16T05:02:57;14.15;;;10.32;;
51214;SDS011;63849;47.546;19.254;2023-04-16T05:05:26;11.43;;;10.23;;
51214;SDS011;63849;47.546;19.254;2023-04-16T05:07:51;10.38;;;9.18;;
51214;SDS011;63849;47.546;19.254;2023-04-16T05:10:17;10.77;;;9.15;;
51214;SDS011;63849;47.546;19.254;2023-04-16T05:12:44;10.48;;;9.25;;
51214;SDS011;63849;47.546;19.254;2023-04-16T05:15:11;9.43;;;8.52;;
51214;SDS011;63849;47.546;19.254;2023-04-16T05:17:37;12.18;;;9.93;;
51214;SDS011;63849;47.546;19.254;2023-04-16T05:20:03;8.98;;;8.07;;
51214;SDS011;63849;47.546;19.254;2023-04-16T05:22:29;9.82;;;8.65;;
51214;SDS011;63849;47.546;19.254;2023-04-16T05:24:54;9.75;;;8.73;;
51214;SDS011;63849;47.546;19.254;2023-04-16T05:27:20;12.02;;;8.98;;
51214;SDS011;63849;47.546;19.254;2023-04-16T05:29:46;9.88;;;8.85;;
51214;SDS011;63849;47.546;19.254;2023-04-16T05:32:12;11.10;;;9.18;;
51214;SDS011;63849;47.546;19.254;2023-04-16T05:34:37;8.75;;;7.90;;
51214;SDS011;63849;47.546;19.254;2023-04-16T05:37:03;8.85;;;6.88;;
51214;SDS011;63849;47.546;19.254;2023-04-16T05:39:29;8.63;;;7.68;;
51214;SDS011;63849;47.546;19.254;2023-04-16T05:41:55;7.78;;;6.97;;
51214;SDS011;63849;47.546;19.254;2023-04-16T05:44:20;7.28;;;6.53;;
51214;SDS011;63849;47.546;19.254;2023-04-16T05:46:46;7.50;;;6.80;;
51214;SDS011;63849;47.546;19.254;2023-04-16T05:49:12;7.03;;;6.35;;
51214;SDS011;63849;47.546;19.254;2023-04-16T05:51:38;9.23;;;7.43;;
51214;SDS011;63849;47.546;19.254;2023-04-16T05:54:03;8.25;;;7.38;;
51214;SDS011;63849;47.546;19.254;2023-04-16T05:56:29;9.85;;;7.53;;
51214;SDS011;63849;47.546;19.254;2023-04-16T05:58:55;8.73;;;6.90;;
51214;SDS011;63849;47.546;19.254;2023-04-16T06:01:21;7.47;;;6.57;;
51214;SDS011;63849;47.546;19.254;2023-04-16T06:03:47;6.93;;;6.18;;
51214;SDS011;63849;47.546;19.254;2023-04-16T06:06:13;7.07;;;6.38;;
51214;SDS011;63849;47.546;19.254;2023-04-16T06:08:38;7.40;;;6.65;;
51214;SDS011;63849;47.546;19.254;2023-04-16T06:11:04;7.43;;;6.70;;
51214;SDS011;63849;47.546;19.254;2023-04-16T06:13:30;10.52;;;7.50;;
51214;SDS011;63849;47.546;19.254;2023-04-16T06:15:56;7.15;;;6.45;;
51214;SDS011;63849;47.546;19.254;2023-04-16T06:18:22;6.22;;;5.63;;
51214;SDS011;63849;47.546;19.254;2023-04-16T06:20:47;6.70;;;5.63;;
51214;SDS011;63849;47.546;19.254;2023-04-16T06:23:13;6.25;;;5.65;;
51214;SDS011;63849;47.546;19.254;2023-04-16T06:25:40;7.90;;;6.75;;
51214;SDS011;63849;47.546;19.254;2023-04-16T06:28:05;6.93;;;5.65;;
51214;SDS011;63849;47.546;19.254;2023-04-16T06:30:31;6.50;;;5.90;;
51214;SDS011;63849;47.546;19.254;2023-04-16T06:32:57;6.57;;;5.95;;
51214;SDS011;63849;47.546;19.254;2023-04-16T06:35:23;6.30;;;5.63;;
51214;SDS011;63849;47.546;19.254;2023-04-16T06:37:49;7.40;;;5.70;;
51214;SDS011;63849;47.546;19.254;2023-04-16T06:40:14;5.97;;;5.38;;
51214;SDS011;63849;47.546;19.254;2023-04-16T06:42:41;5.88;;;5.00;;
51214;SDS011;63849;47.546;19.254;2023-04-16T06:45:08;4.45;;;4.05;;
51214;SDS011;63849;47.546;19.254;2023-04-16T06:47:34;3.92;;;3.63;;
51214;SDS011;63849;47.546;19.254;2023-04-16T06:50:00;5.28;;;3.90;;
51214;SDS011;63849;47.546;19.254;2023-04-16T06:52:25;4.93;;;3.90;;
51214;SDS011;63849;47.546;19.254;2023-04-16T06:54:52;5.60;;;4.63;;
51214;SDS011;63849;47.546;19.254;2023-04-16T06:57:18;4.60;;;4.15;;
51214;SDS011;63849;47.546;19.254;2023-04-16T06:59:44;4.25;;;3.85;;
51214;SDS011;63849;47.546;19.254;2023-04-16T07:02:10;4.95;;;4.38;;
51214;SDS011;63849;47.546;19.254;2023-04-16T07:04:36;6.60;;;5.03;;
51214;SDS011;63849;47.546;19.254;2023-04-16T07:07:01;5.15;;;4.65;;
51214;SDS011;63849;47.546;19.254;2023-04-16T07:09:27;7.28;;;4.60;;
51214;SDS011;63849;47.546;19.254;2023-04-16T07:11:53;6.47;;;5.10;;
51214;SDS011;63849;47.546;19.254;2023-04-16T07:14:19;6.57;;;5.38;;
51214;SDS011;63849;47.546;19.254;2023-04-16T07:16:45;5.70;;;5.20;;
51214;SDS011;63849;47.546;19.254;2023-04-16T07:19:10;8.02;;;4.60;;
51214;SDS011;63849;47.546;19.254;2023-04-16T07:21:36;7.95;;;5.22;;
51214;SDS011;63849;47.546;19.254;2023-04-16T07:24:02;5.95;;;4.88;;
51214;SDS011;63849;47.546;19.254;2023-04-16T07:26:28;6.88;;;4.65;;
51214;SDS011;63849;47.546;19.254;2023-04-16T07:28:54;4.85;;;4.38;;
51214;SDS011;63849;47.546;19.254;2023-04-16T07:31:20;6.15;;;4.90;;
51214;SDS011;63849;47.546;19.254;2023-04-16T07:33:46;12.35;;;8.40;;
51214;SDS011;63849;47.546;19.254;2023-04-16T07:36:12;6.63;;;6.03;;
51214;SDS011;63849;47.546;19.254;2023-04-16T07:38:38;6.60;;;5.95;;
51214;SDS011;63849;47.546;19.254;2023-04-16T07:41:03;6.70;;;6.10;;
51214;SDS011;63849;47.546;19.254;2023-04-16T07:43:29;6.32;;;5.72;;
51214;SDS011;63849;47.546;19.254;2023-04-16T07:45:55;6.80;;;6.10;;
51214;SDS011;63849;47.546;19.254;2023-04-16T07:48:21;6.63;;;5.78;;
51214;SDS011;63849;47.546;19.254;2023-04-16T07:50:46;7.18;;;5.95;;
51214;SDS011;63849;47.546;19.254;2023-04-16T07:53:14;6.20;;;5.60;;
51214;SDS011;63849;47.546;19.254;2023-04-16T07:55:39;7.15;;;6.00;;
51214;SDS011;63849;47.546;19.254;2023-04-16T07:58:05;15.15;;;11.93;;
51214;SDS011;63849;47.546;19.254;2023-04-16T08:00:33;6.57;;;5.85;;
51214;SDS011;63849;47.546;19.254;2023-04-16T08:02:59;9.13;;;6.88;;
51214;SDS011;63849;47.546;19.254;2023-04-16T08:05:25;11.00;;;6.55;;
51214;SDS011;63849;47.546;19.254;2023-04-16T08:07:51;5.07;;;4.60;;
51214;SDS011;63849;47.546;19.254;2023-04-16T08:10:16;5.32;;;4.82;;
51214;SDS011;63849;47.546;19.254;2023-04-16T08:12:42;5.15;;;4.65;;
51214;SDS011;63849;47.546;19.254;2023-04-16T08:15:08;4.93;;;4.28;;
51214;SDS011;63849;47.546;19.254;2023-04-16T08:17:34;6.15;;;4.90;;
51214;SDS011;63849;47.546;19.254;2023-04-16T08:20:01;5.13;;;3.55;;
51214;SDS011;63849;47.546;19.254;2023-04-16T08:22:27;5.85;;;4.35;;
51214;SDS011;63849;47.546;19.254;2023-04-16T08:24:53;5.55;;;3.67;;
51214;SDS011;63849;47.546;19.254;2023-04-16T08:27:19;4.38;;;3.95;;
51214;SDS011;63849;47.546;19.254;2023-04-16T08:29:45;4.25;;;3.83;;
51214;SDS011;63849;47.546;19.254;2023-04-16T08:32:11;4.75;;;3.88;;
51214;SDS011;63849;47.546;19.254;2023-04-16T08:34:37;4.25;;;3.78;;
51214;SDS011;63849;47.546;19.254;2023-04-16T08:37:03;6.40;;;4.50;;
51214;SDS011;63849;47.546;19.254;2023-04-16T08:39:29;5.07;;;3.83;;
51214;SDS011;63849;47.546;19.254;2023-04-16T08:41:54;8.18;;;4.05;;
51214;SDS011;63849;47.546;19.254;2023-04-16T08:44:24;4.63;;;3.10;;
51214;SDS011;63849;47.546;19.254;2023-04-16T08:46:52;4.53;;;3.45;;
51214;SDS011;63849;47.546;19.254;2023-04-16T08:49:22;3.97;;;3.30;;
51214;SDS011;63849;47.546;19.254;2023-04-16T08:51:52;3.17;;;2.45;;
51214;SDS011;63849;47.546;19.254;2023-04-16T08:57:02;3.42;;;3.13;;
51214;SDS011;63849;47.546;19.254;2023-04-16T08:59:30;3.28;;;3.00;;
51214;SDS011;63849;47.546;19.254;2023-04-16T09:01:57;3.30;;;2.97;;
51214;SDS011;63849;47.546;19.254;2023-04-16T09:04:27;3.25;;;2.97;;
51214;SDS011;63849;47.546;19.254;2023-04-16T09:06:57;7.03;;;3.20;;
51214;SDS011;63849;47.546;19.254;2023-04-16T09:09:25;3.00;;;2.65;;
51214;SDS011;63849;47.546;19.254;2023-04-16T09:11:52;3.15;;;2.20;;
51214;SDS011;63849;47.546;19.254;2023-04-16T09:14:18;2.83;;;1.90;;
51214;SDS011;63849;47.546;19.254;2023-04-16T09:16:45;3.05;;;1.83;;
51214;SDS011;63849;47.546;19.254;2023-04-16T09:19:14;3.83;;;2.05;;
51214;SDS011;63849;47.546;19.254;2023-04-16T09:21:40;2.03;;;1.83;;
51214;SDS011;63849;47.546;19.254;2023-04-16T09:24:07;3.03;;;2.45;;
51214;SDS011;63849;47.546;19.254;2023-04-16T09:26:34;2.80;;;2.38;;
51214;SDS011;63849;47.546;19.254;2023-04-16T09:29:00;3.80;;;2.35;;
51214;SDS011;63849;47.546;19.254;2023-04-16T09:31:26;2.00;;;1.80;;
51214;SDS011;63849;47.546;19.254;2023-04-16T09:34:25;2.53;;;1.70;;
51214;SDS011;63849;47.546;19.254;2023-04-16T09:36:44;2.72;;;1.65;;
51214;SDS011;63849;47.546;19.254;2023-04-16T09:39:09;1.55;;;1.40;;
51214;SDS011;63849;47.546;19.254;2023-04-16T09:41:43;3.83;;;2.38;;
51214;SDS011;63849;47.546;19.254;2023-04-16T09:44:11;3.22;;;2.45;;
51214;SDS011;63849;47.546;19.254;2023-04-16T09:46:40;3.53;;;2.10;;
51214;SDS011;63849;47.546;19.254;2023-04-16T09:49:13;1.98;;;1.35;;
51214;SDS011;63849;47.546;19.254;2023-04-16T09:51:40;1.63;;;1.52;;
51214;SDS011;63849;47.546;19.254;2023-04-16T09:54:07;4.30;;;1.90;;
51214;SDS011;63849;47.546;19.254;2023-04-16T09:56:43;6.90;;;2.78;;
51214;SDS011;63849;47.546;19.254;2023-04-16T09:59:16;2.42;;;2.00;;
51214;SDS011;63849;47.546;19.254;2023-04-16T10:01:42;6.23;;;2.80;;
51214;SDS011;63849;47.546;19.254;2023-04-16T10:04:10;3.25;;;2.30;;
51214;SDS011;63849;47.546;19.254;2023-04-16T10:06:36;2.95;;;1.48;;
51214;SDS011;63849;47.546;19.254;2023-04-16T10:09:04;2.45;;;1.60;;
51214;SDS011;63849;47.546;19.254;2023-04-16T10:11:32;1.48;;;1.38;;
51214;SDS011;63849;47.546;19.254;2023-04-16T10:13:58;3.53;;;1.77;;
51214;SDS011;63849;47.546;19.254;2023-04-16T10:16:24;5.22;;;1.77;;
51214;SDS011;63849;47.546;19.254;2023-04-16T10:18:50;1.65;;;1.42;;
51214;SDS011;63849;47.546;19.254;2023-04-16T10:21:17;7.50;;;3.20;;
51214;SDS011;63849;47.546;19.254;2023-04-16T10:23:43;5.97;;;3.38;;
51214;SDS011;63849;47.546;19.254;2023-04-16T10:31:19;1.25;;;1.10;;
51214;SDS011;63849;47.546;19.254;2023-04-16T10:33:45;4.13;;;1.90;;
51214;SDS011;63849;47.546;19.254;2023-04-16T10:36:12;2.58;;;1.65;;
51214;SDS011;63849;47.546;19.254;2023-04-16T10:38:48;3.88;;;1.67;;
51214;SDS011;63849;47.546;19.254;2023-04-16T10:41:15;1.60;;;1.30;;
51214;SDS011;63849;47.546;19.254;2023-04-16T10:43:45;1.60;;;1.50;;
51214;SDS011;63849;47.546;19.254;2023-04-16T10:46:16;2.10;;;1.70;;
51214;SDS011;63849;47.546;19.254;2023-04-16T10:48:43;2.95;;;1.73;;
51214;SDS011;63849;47.546;19.254;2023-04-16T10:51:21;2.60;;;1.70;;
51214;SDS011;63849;47.546;19.254;2023-04-16T10:56:33;2.92;;;1.75;;
51214;SDS011;63849;47.546;19.254;2023-04-16T10:59:00;2.05;;;1.90;;
51214;SDS011;63849;47.546;19.254;2023-04-16T11:01:35;3.30;;;1.90;;
51214;SDS011;63849;47.546;19.254;2023-04-16T11:07:05;2.35;;;1.88;;
51214;SDS011;63849;47.546;19.254;2023-04-16T11:12:21;3.75;;;2.05;;
51214;SDS011;63849;47.546;19.254;2023-04-16T11:14:55;2.42;;;2.00;;
51214;SDS011;63849;47.546;19.254;2023-04-16T11:19:53;3.13;;;2.00;;
51214;SDS011;63849;47.546;19.254;2023-04-16T11:22:19;2.08;;;1.83;;
51214;SDS011;63849;47.546;19.254;2023-04-16T11:24:45;2.85;;;2.30;;
51214;SDS011;63849;47.546;19.254;2023-04-16T11:27:20;3.50;;;2.00;;
51214;SDS011;63849;47.546;19.254;2023-04-16T11:29:55;5.28;;;2.17;;
51214;SDS011;63849;47.546;19.254;2023-04-16T11:32:32;4.75;;;1.50;;
51214;SDS011;63849;47.546;19.254;2023-04-16T11:34:59;2.65;;;1.20;;
51214;SDS011;63849;47.546;19.254;2023-04-16T11:39:58;4.68;;;1.83;;
51214;SDS011;63849;47.546;19.254;2023-04-16T11:42:25;2.33;;;1.25;;
51214;SDS011;63849;47.546;19.254;2023-04-16T11:44:56;1.63;;;1.40;;
51214;SDS011;63849;47.546;19.254;2023-04-16T11:47:25;2.40;;;1.25;;
51214;SDS011;63849;47.546;19.254;2023-04-16T11:49:51;1.60;;;1.50;;
51214;SDS011;63849;47.546;19.254;2023-04-16T11:52:27;1.50;;;1.23;;
51214;SDS011;63849;47.546;19.254;2023-04-16T11:54:55;1.85;;;1.15;;
51214;SDS011;63849;47.546;19.254;2023-04-16T11:57:29;1.52;;;0.90;;
51214;SDS011;63849;47.546;19.254;2023-04-16T11:59:56;1.77;;;0.93;;
51214;SDS011;63849;47.546;19.254;2023-04-16T12:02:33;2.17;;;1.00;;
51214;SDS011;63849;47.546;19.254;2023-04-16T12:05:00;3.92;;;1.20;;
51214;SDS011;63849;47.546;19.254;2023-04-16T12:07:26;2.28;;;1.10;;
51214;SDS011;63849;47.546;19.254;2023-04-16T12:10:03;3.90;;;1.10;;
51214;SDS011;63849;47.546;19.254;2023-04-16T12:12:31;3.33;;;1.30;;
51214;SDS011;63849;47.546;19.254;2023-04-16T12:14:59;6.20;;;2.83;;
51214;SDS011;63849;47.546;19.254;2023-04-16T12:17:28;5.38;;;2.58;;
51214;SDS011;63849;47.546;19.254;2023-04-16T12:19:55;10.68;;;1.02;;
51214;SDS011;63849;47.546;19.254;2023-04-16T12:22:30;1.63;;;0.93;;
51214;SDS011;63849;47.546;19.254;2023-04-16T12:25:06;3.35;;;1.20;;
51214;SDS011;63849;47.546;19.254;2023-04-16T12:27:43;1.35;;;0.85;;
51214;SDS011;63849;47.546;19.254;2023-04-16T12:30:11;1.23;;;1.00;;
51214;SDS011;63849;47.546;19.254;2023-04-16T12:32:39;0.98;;;0.70;;
51214;SDS011;63849;47.546;19.254;2023-04-16T12:35:07;1.63;;;0.80;;
51214;SDS011;63849;47.546;19.254;2023-04-16T12:37:36;2.55;;;0.80;;
51214;SDS011;63849;47.546;19.254;2023-04-16T12:40:02;1.02;;;0.80;;
51214;SDS011;63849;47.546;19.254;2023-04-16T12:42:30;1.20;;;1.00;;
51214;SDS011;63849;47.546;19.254;2023-04-16T12:45:03;3.13;;;1.23;;
51214;SDS011;63849;47.546;19.254;2023-04-16T12:47:33;2.45;;;0.95;;
51214;SDS011;63849;47.546;19.254;2023-04-16T12:49:58;2.30;;;1.00;;
51214;SDS011;63849;47.546;19.254;2023-04-16T12:52:24;2.80;;;1.10;;
51214;SDS011;63849;47.546;19.254;2023-04-16T12:54:50;1.60;;;1.25;;
51214;SDS011;63849;47.546;19.254;2023-04-16T12:57:17;2.08;;;1.33;;
51214;SDS011;63849;47.546;19.254;2023-04-16T12:59:43;2.17;;;1.15;;
51214;SDS011;63849;47.546;19.254;2023-04-16T13:02:11;1.08;;;0.98;;
51214;SDS011;63849;47.546;19.254;2023-04-16T13:04:37;2.17;;;0.88;;
51214;SDS011;63849;47.546;19.254;2023-04-16T13:07:02;1.65;;;1.15;;
51214;SDS011;63849;47.546;19.254;2023-04-16T13:09:28;1.13;;;0.80;;
51214;SDS011;63849;47.546;19.254;2023-04-16T13:11:54;1.35;;;0.80;;
51214;SDS011;63849;47.546;19.254;2023-04-16T13:14:20;3.30;;;1.50;;
51214;SDS011;63849;47.546;19.254;2023-04-16T13:16:45;2.92;;;1.20;;
51214;SDS011;63849;47.546;19.254;2023-04-16T13:19:11;1.98;;;0.90;;
51214;SDS011;63849;47.546;19.254;2023-04-16T13:21:37;1.20;;;1.02;;
51214;SDS011;63849;47.546;19.254;2023-04-16T13:24:03;1.13;;;0.90;;
51214;SDS011;63849;47.546;19.254;2023-04-16T13:26:29;1.60;;;1.10;;
51214;SDS011;63849;47.546;19.254;2023-04-16T13:28:55;1.00;;;0.90;;
51214;SDS011;63849;47.546;19.254;2023-04-16T13:31:20;2.15;;;1.10;;
51214;SDS011;63849;47.546;19.254;2023-04-16T13:33:46;23.08;;;2.30;;
51214;SDS011;63849;47.546;19.254;2023-04-16T13:36:12;1.67;;;1.00;;
51214;SDS011;63849;47.546;19.254;2023-04-16T13:38:38;1.05;;;0.60;;
51214;SDS011;63849;47.546;19.254;2023-04-16T13:41:04;1.40;;;0.90;;
51214;SDS011;63849;47.546;19.254;2023-04-16T13:43:30;1.50;;;0.90;;
51214;SDS011;63849;47.546;19.254;2023-04-16T13:45:57;2.28;;;1.30;;
51214;SDS011;63849;47.546;19.254;2023-04-16T13:48:23;1.00;;;0.90;;
51214;SDS011;63849;47.546;19.254;2023-04-16T13:50:48;1.52;;;0.90;;
51214;SDS011;63849;47.546;19.254;2023-04-16T13:53:14;2.28;;;1.33;;
51214;SDS011;63849;47.546;19.254;2023-04-16T13:55:41;10.65;;;5.95;;
51214;SDS011;63849;47.546;19.254;2023-04-16T13:58:07;2.50;;;1.10;;
51214;SDS011;63849;47.546;19.254;2023-04-16T14:00:33;0.80;;;0.70;;
51214;SDS011;63849;47.546;19.254;2023-04-16T14:02:58;1.67;;;0.73;;
51214;SDS011;63849;47.546;19.254;2023-04-16T14:05:24;1.42;;;0.73;;
51214;SDS011;63849;47.546;19.254;2023-04-16T14:07:50;1.33;;;0.77;;
51214;SDS011;63849;47.546;19.254;2023-04-16T14:10:16;3.25;;;0.80;;
51214;SDS011;63849;47.546;19.254;2023-04-16T14:12:42;1.90;;;1.08;;
51214;SDS011;63849;47.546;19.254;2023-04-16T14:15:09;2.67;;;1.30;;
51214;SDS011;63849;47.546;19.254;2023-04-16T14:17:38;3.08;;;1.00;;
51214;SDS011;63849;47.546;19.254;2023-04-16T14:20:08;2.65;;;0.80;;
51214;SDS011;63849;47.546;19.254;2023-04-16T14:22:34;1.48;;;0.75;;
51214;SDS011;63849;47.546;19.254;2023-04-16T14:25:00;1.20;;;0.80;;
51214;SDS011;63849;47.546;19.254;2023-04-16T14:27:26;0.95;;;0.70;;
51214;SDS011;63849;47.546;19.254;2023-04-16T14:29:52;1.63;;;0.70;;
51214;SDS011;63849;47.546;19.254;2023-04-16T14:32:18;1.00;;;0.85;;
51214;SDS011;63849;47.546;19.254;2023-04-16T14:34:45;1.30;;;0.73;;
51214;SDS011;63849;47.546;19.254;2023-04-16T14:37:11;1.10;;;0.90;;
51214;SDS011;63849;47.546;19.254;2023-04-16T14:39:37;0.90;;;0.77;;
51214;SDS011;63849;47.546;19.254;2023-04-16T14:42:03;1.33;;;0.90;;
51214;SDS011;63849;47.546;19.254;2023-04-16T14:44:32;2.75;;;0.95;;